createdAt,value
2017-08-09T00:01:04.439Z,17.8
2017-08-09T00:02:11.932Z,17.8
2017-08-09T00:03:19.710Z,17.8
2017-08-09T00:04:27.203Z,17.8
2017-08-09T00:05:34.701Z,17.8
2017-08-09T00:06:42.191Z,17.7
2017-08-09T00:07:49.669Z,17.7
2017-08-09T00:08:57.116Z,17.6
2017-08-09T00:10:04.596Z,17.6
2017-08-09T00:11:12.081Z,17.5
2017-08-09T00:12:19.561Z,17.5
2017-08-09T00:13:27.055Z,17.5
2017-08-09T00:14:34.836Z,17.5
2017-08-09T00:15:42.313Z,17.5
2017-08-09T00:16:49.804Z,17.5
2017-08-09T00:17:57.291Z,17.5
2017-08-09T00:19:04.772Z,17.4
2017-08-09T00:20:12.555Z,17.4
2017-08-09T00:21:20.051Z,17.5
2017-08-09T00:22:27.538Z,17.5
2017-08-09T00:23:35.025Z,17.5
2017-08-09T00:24:42.505Z,17.4
2017-08-09T00:25:49.947Z,17.4
2017-08-09T00:26:57.097Z,17.4
2017-08-09T00:28:04.575Z,17.4
2017-08-09T00:29:11.769Z,17.4
2017-08-09T00:30:19.249Z,17.3
2017-08-09T00:31:28.477Z,17.3
2017-08-09T00:32:35.959Z,17.3
2017-08-09T00:33:43.442Z,17.3
2017-08-09T00:34:50.924Z,17.2
2017-08-09T00:35:58.073Z,17.2
2017-08-09T00:37:05.548Z,17.2
2017-08-09T00:38:13.050Z,17.2
2017-08-09T00:39:20.536Z,17.2
2017-08-09T00:40:28.041Z,17.1
2017-08-09T00:41:35.521Z,17.1
2017-08-09T00:42:43.305Z,17
2017-08-09T00:43:50.789Z,17
2017-08-09T00:44:58.268Z,17
2017-08-09T00:46:05.379Z,17
2017-08-09T00:47:12.852Z,17
2017-08-09T00:48:20.631Z,17
2017-08-09T00:49:28.108Z,16.9
2017-08-09T00:50:35.587Z,16.9
2017-08-09T00:51:42.737Z,16.9
2017-08-09T00:52:50.449Z,16.9
2017-08-09T00:53:58.238Z,16.8
2017-08-09T00:55:05.714Z,16.8
2017-08-09T00:56:13.201Z,16.8
2017-08-09T00:57:20.698Z,16.8
2017-08-09T00:58:28.181Z,16.7
2017-08-09T00:59:35.974Z,16.7
2017-08-09T01:00:43.454Z,16.7
2017-08-09T01:01:50.613Z,16.6
2017-08-09T01:02:58.094Z,16.6
2017-08-09T01:04:05.571Z,16.6
2017-08-09T01:05:13.353Z,16.5
2017-08-09T01:06:20.834Z,16.5
2017-08-09T01:07:28.314Z,16.5
2017-08-09T01:08:35.795Z,16.5
2017-08-09T01:09:43.288Z,16.5
2017-08-09T01:10:50.743Z,16.5
2017-08-09T01:11:58.226Z,16.4
2017-08-09T01:13:05.709Z,16.4
2017-08-09T01:14:13.194Z,16.4
2017-08-09T01:15:20.669Z,16.4
2017-08-09T01:16:28.454Z,16.4
2017-08-09T01:17:36.796Z,16.4
2017-08-09T01:18:44.281Z,16.4
2017-08-09T01:19:51.439Z,16.3
2017-08-09T01:20:58.919Z,16.3
2017-08-09T01:22:06.692Z,16.3
2017-08-09T01:23:14.177Z,16.3
2017-08-09T01:24:21.656Z,16.3
2017-08-09T01:25:28.824Z,16.3
2017-08-09T01:26:36.000Z,16.3
2017-08-09T01:27:43.780Z,16.3
2017-08-09T01:28:51.269Z,16.3
2017-08-09T01:29:58.743Z,16.3
2017-08-09T01:31:06.231Z,16.3
2017-08-09T01:32:13.721Z,16.3
2017-08-09T01:33:21.500Z,16.3
2017-08-09T01:34:28.976Z,16.3
2017-08-09T01:35:36.474Z,16.3
2017-08-09T01:36:43.955Z,16.3
2017-08-09T01:37:51.439Z,16.3
2017-08-09T01:38:59.223Z,16.3
2017-08-09T01:40:06.372Z,16.3
2017-08-09T01:41:13.852Z,16.3
2017-08-09T01:42:21.336Z,16.2
2017-08-09T01:43:28.811Z,16.2
2017-08-09T01:44:36.594Z,16.2
2017-08-09T01:45:43.741Z,16.2
2017-08-09T01:46:51.215Z,16.2
2017-08-09T01:47:58.700Z,16.1
2017-08-09T01:49:06.176Z,16.1
2017-08-09T01:50:13.957Z,16
2017-08-09T01:51:21.435Z,16
2017-08-09T01:52:28.917Z,16.1
2017-08-09T01:53:36.400Z,16.1
2017-08-09T01:54:43.894Z,16
2017-08-09T01:55:51.675Z,16
2017-08-09T01:56:59.174Z,16
2017-08-09T01:58:06.675Z,16
2017-08-09T01:59:13.825Z,16
2017-08-09T02:00:20.979Z,16
2017-08-09T02:01:28.763Z,16
2017-08-09T02:02:36.242Z,16
2017-08-09T02:03:43.405Z,15.9
2017-08-09T02:04:50.879Z,15.9
2017-08-09T02:05:58.379Z,15.9
2017-08-09T02:07:06.155Z,15.9
2017-08-09T02:08:13.633Z,15.9
2017-08-09T02:09:21.139Z,15.9
2017-08-09T02:10:28.285Z,15.8
2017-08-09T02:11:35.448Z,15.8
2017-08-09T02:12:43.224Z,15.8
2017-08-09T02:13:50.424Z,15.8
2017-08-09T02:14:57.899Z,15.8
2017-08-09T02:16:05.383Z,15.8
2017-08-09T02:17:12.538Z,15.8
2017-08-09T02:18:20.318Z,15.8
2017-08-09T02:19:27.797Z,15.8
2017-08-09T02:20:35.283Z,15.8
2017-08-09T02:21:42.762Z,15.8
2017-08-09T02:22:50.241Z,15.8
2017-08-09T02:23:58.018Z,15.8
2017-08-09T02:25:05.502Z,15.7
2017-08-09T02:26:13.008Z,15.7
2017-08-09T02:27:20.482Z,15.7
2017-08-09T02:28:27.965Z,15.7
2017-08-09T02:29:35.749Z,15.7
2017-08-09T02:30:43.459Z,15.7
2017-08-09T02:31:50.944Z,15.7
2017-08-09T02:32:58.461Z,15.7
2017-08-09T02:34:05.617Z,15.7
2017-08-09T02:35:13.063Z,15.7
2017-08-09T02:36:20.550Z,15.7
2017-08-09T02:37:28.033Z,15.7
2017-08-09T02:38:35.187Z,15.7
2017-08-09T02:39:42.660Z,15.6
2017-08-09T02:40:50.436Z,15.6
2017-08-09T02:41:57.919Z,15.7
2017-08-09T02:43:05.420Z,15.6
2017-08-09T02:44:12.891Z,15.6
2017-08-09T02:45:20.381Z,15.6
2017-08-09T02:46:28.154Z,15.5
2017-08-09T02:47:35.640Z,15.5
2017-08-09T02:48:42.786Z,15.5
2017-08-09T02:49:49.941Z,15.5
2017-08-09T02:50:57.086Z,15.5
2017-08-09T02:52:04.875Z,15.5
2017-08-09T02:53:12.360Z,15.5
2017-08-09T02:54:19.888Z,15.5
2017-08-09T02:55:27.037Z,15.5
2017-08-09T02:56:34.518Z,15.5
2017-08-09T02:57:42.296Z,15.5
2017-08-09T02:58:49.775Z,15.4
2017-08-09T02:59:57.260Z,15.4
2017-08-09T03:01:04.421Z,15.4
2017-08-09T03:02:11.901Z,15.4
2017-08-09T03:03:19.683Z,15.4
2017-08-09T03:04:27.165Z,15.4
2017-08-09T03:05:34.314Z,15.4
2017-08-09T03:06:41.791Z,15.4
2017-08-09T03:07:48.940Z,15.3
2017-08-09T03:08:56.986Z,15.3
2017-08-09T03:10:04.461Z,15.3
2017-08-09T03:11:11.945Z,15.3
2017-08-09T03:12:19.423Z,15.3
2017-08-09T03:13:26.906Z,15.3
2017-08-09T03:14:34.737Z,15.2
2017-08-09T03:15:41.900Z,15.2
2017-08-09T03:16:49.602Z,15.2
2017-08-09T03:17:57.085Z,15.1
2017-08-09T03:19:04.568Z,15.1
2017-08-09T03:20:12.350Z,15.1
2017-08-09T03:21:19.512Z,15.1
2017-08-09T03:22:26.985Z,15.1
2017-08-09T03:23:33.813Z,15
2017-08-09T03:24:41.293Z,15
2017-08-09T03:25:48.800Z,15
2017-08-09T03:26:55.949Z,15
2017-08-09T03:28:03.660Z,14.9
2017-08-09T03:29:10.505Z,14.9
2017-08-09T03:30:17.994Z,14.9
2017-08-09T03:31:25.822Z,14.9
2017-08-09T03:32:33.339Z,14.8
2017-08-09T03:33:40.823Z,14.8
2017-08-09T03:34:47.972Z,14.8
2017-08-09T03:35:55.451Z,14.8
2017-08-09T03:37:02.625Z,14.7
2017-08-09T03:38:10.099Z,14.7
2017-08-09T03:39:16.920Z,14.7
2017-08-09T03:40:24.393Z,14.6
2017-08-09T03:41:31.869Z,14.6
2017-08-09T03:42:39.702Z,14.5
2017-08-09T03:43:47.181Z,14.5
2017-08-09T03:44:54.666Z,14.5
2017-08-09T03:46:02.150Z,14.5
2017-08-09T03:47:09.629Z,14.4
2017-08-09T03:48:17.591Z,14.4
2017-08-09T03:49:25.088Z,14.4
2017-08-09T03:50:32.573Z,14.4
2017-08-09T03:51:40.050Z,14.4
2017-08-09T03:52:47.529Z,14.4
2017-08-09T03:53:55.306Z,14.4
2017-08-09T03:55:02.790Z,14.3
2017-08-09T03:56:10.278Z,14.3
2017-08-09T03:57:17.767Z,14.3
2017-08-09T03:58:25.244Z,14.3
2017-08-09T03:59:33.082Z,14.2
2017-08-09T04:00:40.554Z,14.2
2017-08-09T04:01:48.032Z,14.2
2017-08-09T04:02:55.509Z,14.2
2017-08-09T04:04:02.994Z,14.1
2017-08-09T04:05:10.446Z,14.1
2017-08-09T04:06:17.934Z,14.2
2017-08-09T04:07:25.403Z,14.1
2017-08-09T04:08:32.900Z,14.1
2017-08-09T04:09:55.020Z,14.1
2017-08-09T04:11:02.851Z,14.1
2017-08-09T04:12:10.329Z,14
2017-08-09T04:13:17.805Z,14
2017-08-09T04:14:25.282Z,14
2017-08-09T04:15:32.761Z,13.9
2017-08-09T04:16:40.598Z,13.9
2017-08-09T04:17:48.071Z,13.9
2017-08-09T04:18:55.567Z,13.9
2017-08-09T04:20:03.044Z,13.9
2017-08-09T04:21:10.550Z,13.9
2017-08-09T04:22:18.379Z,13.9
2017-08-09T04:23:25.861Z,13.9
2017-08-09T04:24:33.343Z,13.9
2017-08-09T04:25:40.497Z,13.9
2017-08-09T04:26:47.645Z,13.9
2017-08-09T04:27:55.087Z,13.8
2017-08-09T04:29:02.573Z,13.9
2017-08-09T04:30:10.049Z,13.9
2017-08-09T04:31:17.537Z,13.8
2017-08-09T04:32:25.015Z,13.8
2017-08-09T04:33:32.508Z,13.8
2017-08-09T04:34:39.989Z,13.8
2017-08-09T04:35:47.463Z,13.8
2017-08-09T04:36:54.945Z,13.8
2017-08-09T04:38:02.427Z,13.8
2017-08-09T04:39:10.251Z,13.8
2017-08-09T04:40:17.415Z,13.8
2017-08-09T04:41:24.895Z,13.8
2017-08-09T04:42:32.394Z,13.9
2017-08-09T04:43:39.872Z,13.9
2017-08-09T04:44:47.328Z,13.9
2017-08-09T04:45:54.472Z,13.9
2017-08-09T04:47:01.947Z,13.9
2017-08-09T04:48:09.423Z,13.9
2017-08-09T04:49:16.901Z,13.9
2017-08-09T04:50:25.082Z,13.9
2017-08-09T04:51:32.556Z,13.9
2017-08-09T04:52:40.038Z,13.9
2017-08-09T04:53:47.517Z,14
2017-08-09T04:54:55.002Z,14
2017-08-09T04:56:02.828Z,14
2017-08-09T04:57:10.304Z,14
2017-08-09T04:58:17.779Z,14
2017-08-09T05:00:47.234Z,14
2017-08-09T05:01:55.018Z,14
2017-08-09T05:03:02.496Z,14
2017-08-09T05:04:09.965Z,14
2017-08-09T05:05:17.457Z,14
2017-08-09T05:06:24.941Z,14
2017-08-09T05:07:32.773Z,14
2017-08-09T05:08:40.250Z,13.9
2017-08-09T05:09:47.731Z,13.9
2017-08-09T05:10:55.203Z,13.9
2017-08-09T05:12:02.683Z,13.9
2017-08-09T05:13:10.511Z,13.9
2017-08-09T05:14:18.011Z,13.9
2017-08-09T05:15:25.170Z,13.9
2017-08-09T05:16:32.671Z,13.8
2017-08-09T05:17:40.150Z,13.8
2017-08-09T05:18:47.632Z,13.8
2017-08-09T05:19:55.413Z,13.8
2017-08-09T05:21:02.891Z,13.8
2017-08-09T05:22:10.361Z,13.8
2017-08-09T05:23:17.184Z,13.7
2017-08-09T05:24:24.323Z,13.8
2017-08-09T05:25:32.098Z,13.8
2017-08-09T05:26:39.240Z,13.8
2017-08-09T05:27:46.716Z,13.8
2017-08-09T05:28:54.189Z,13.8
2017-08-09T05:30:01.341Z,13.8
2017-08-09T05:31:09.120Z,13.8
2017-08-09T05:32:16.621Z,13.8
2017-08-09T05:33:24.001Z,13.8
2017-08-09T05:34:32.451Z,13.8
2017-08-09T05:35:39.922Z,13.8
2017-08-09T05:36:47.380Z,13.8
2017-08-09T05:37:54.864Z,13.8
2017-08-09T05:39:02.341Z,13.8
2017-08-09T05:40:09.816Z,13.8
2017-08-09T05:41:17.295Z,13.8
2017-08-09T05:42:25.069Z,13.8
2017-08-09T05:43:32.550Z,13.8
2017-08-09T05:44:40.025Z,13.8
2017-08-09T05:45:46.854Z,13.9
2017-08-09T05:46:54.330Z,13.9
2017-08-09T05:48:02.109Z,14
2017-08-09T05:49:09.590Z,14
2017-08-09T05:50:17.084Z,14
2017-08-09T05:51:24.567Z,14.1
2017-08-09T05:52:32.056Z,14.1
2017-08-09T05:53:39.543Z,14.2
2017-08-09T05:54:46.617Z,14.2
2017-08-09T05:55:54.105Z,14.3
2017-08-09T05:57:01.246Z,14.4
2017-08-09T05:58:08.727Z,14.5
2017-08-09T05:59:16.505Z,14.5
2017-08-09T06:00:23.652Z,14.6
2017-08-09T06:01:30.797Z,14.7
2017-08-09T06:02:38.274Z,14.8
2017-08-09T06:03:45.434Z,14.9
2017-08-09T06:04:53.207Z,14.9
2017-08-09T06:06:00.349Z,15.1
2017-08-09T06:07:07.507Z,15.2
2017-08-09T06:08:14.988Z,15.3
2017-08-09T06:09:22.466Z,15.4
2017-08-09T06:10:29.919Z,15.5
2017-08-09T06:11:37.401Z,15.7
2017-08-09T06:12:44.877Z,15.8
2017-08-09T06:13:52.362Z,15.9
2017-08-09T06:14:59.853Z,16.1
2017-08-09T06:16:07.641Z,16.3
2017-08-09T06:17:15.127Z,16.4
2017-08-09T06:18:22.613Z,16.4
2017-08-09T06:19:30.091Z,16.5
2017-08-09T06:20:37.568Z,16.7
2017-08-09T06:21:45.350Z,16.8
2017-08-09T06:22:52.828Z,16.9
2017-08-09T06:23:59.982Z,17
2017-08-09T06:25:07.482Z,17.1
2017-08-09T06:26:14.956Z,17.2
2017-08-09T06:27:22.788Z,17.2
2017-08-09T06:28:30.268Z,17.2
2017-08-09T06:29:37.946Z,17.4
2017-08-09T06:30:45.093Z,17.6
2017-08-09T06:31:52.247Z,17.7
2017-08-09T06:33:00.080Z,17.7
2017-08-09T06:34:07.232Z,17.6
2017-08-09T06:35:14.709Z,17.5
2017-08-09T06:36:22.188Z,17.7
2017-08-09T06:37:29.662Z,17.8
2017-08-09T06:38:37.433Z,17.8
2017-08-09T06:39:44.591Z,17.8
2017-08-09T06:40:52.069Z,17.9
2017-08-09T06:41:59.821Z,17.8
2017-08-09T06:43:07.309Z,18.1
2017-08-09T06:44:14.789Z,18.3
2017-08-09T06:45:22.297Z,18.5
2017-08-09T06:46:29.788Z,18.6
2017-08-09T06:47:37.621Z,18.7
2017-08-09T06:48:45.103Z,18.7
2017-08-09T06:49:52.587Z,18.7
2017-08-09T06:51:00.061Z,18.5
2017-08-09T06:52:07.546Z,18.4
2017-08-09T06:53:15.027Z,18.4
2017-08-09T06:54:22.507Z,18.3
2017-08-09T06:55:29.969Z,18.2
2017-08-09T06:56:37.447Z,18.3
2017-08-09T06:57:44.928Z,18.4
2017-08-09T06:58:52.409Z,18.7
2017-08-09T06:59:59.925Z,18.9
2017-08-09T07:01:07.721Z,19.1
2017-08-09T07:02:15.207Z,19.1
2017-08-09T07:03:22.361Z,19.1
2017-08-09T07:04:29.852Z,19.1
2017-08-09T07:05:37.330Z,19.4
2017-08-09T07:06:44.790Z,19.5
2017-08-09T07:07:52.291Z,19.7
2017-08-09T07:08:59.765Z,19.8
2017-08-09T07:10:07.254Z,20
2017-08-09T07:11:14.400Z,20.2
2017-08-09T07:12:21.546Z,20.4
2017-08-09T07:13:29.034Z,20.4
2017-08-09T07:14:36.189Z,20.4
2017-08-09T07:15:43.672Z,20.4
2017-08-09T07:16:51.154Z,20.4
2017-08-09T07:17:58.935Z,20.4
2017-08-09T07:19:06.103Z,20.5
2017-08-09T07:20:13.584Z,20.6
2017-08-09T07:21:20.735Z,20.6
2017-08-09T07:22:28.223Z,20.7
2017-08-09T07:23:35.666Z,20.6
2017-08-09T07:24:43.154Z,20.5
2017-08-09T07:25:50.324Z,20.5
2017-08-09T07:26:57.805Z,20.8
2017-08-09T07:28:05.295Z,20.7
2017-08-09T07:29:13.079Z,20.6
2017-08-09T07:30:20.581Z,20.2
2017-08-09T07:31:27.733Z,20.4
2017-08-09T07:32:35.215Z,20.5
2017-08-09T07:33:42.704Z,20.5
2017-08-09T07:34:50.531Z,20.6
2017-08-09T07:35:58.026Z,20.9
2017-08-09T07:37:05.505Z,21.2
2017-08-09T07:38:12.651Z,20.8
2017-08-09T07:39:19.809Z,20.7
2017-08-09T07:40:27.266Z,20.7
2017-08-09T07:41:34.936Z,20.9
2017-08-09T07:42:42.441Z,21
2017-08-09T07:43:49.933Z,21
2017-08-09T07:44:57.448Z,21.1
2017-08-09T07:46:05.233Z,21.3
2017-08-09T07:47:12.718Z,21.6
2017-08-09T07:48:20.206Z,21.9
2017-08-09T07:49:27.688Z,22.1
2017-08-09T07:50:35.171Z,22
2017-08-09T07:51:43.041Z,21.9
2017-08-09T07:52:50.527Z,21.8
2017-08-09T07:53:58.020Z,21.7
2017-08-09T07:55:05.174Z,21.8
2017-08-09T07:56:12.661Z,21.8
2017-08-09T07:57:19.842Z,21.7
2017-08-09T07:58:27.326Z,21.9
2017-08-09T07:59:34.479Z,22.1
2017-08-09T08:00:41.966Z,22.3
2017-08-09T08:01:49.448Z,22.6
2017-08-09T08:02:56.934Z,23
2017-08-09T08:04:04.720Z,23.1
2017-08-09T08:05:11.880Z,23
2017-08-09T08:06:19.039Z,23
2017-08-09T08:07:26.215Z,23
2017-08-09T08:08:33.701Z,22.9
2017-08-09T08:09:41.542Z,22.9
2017-08-09T08:10:49.027Z,22.6
2017-08-09T08:11:56.508Z,22.4
2017-08-09T08:13:04.006Z,22.3
2017-08-09T08:14:11.485Z,22.3
2017-08-09T08:15:19.270Z,22.5
2017-08-09T08:16:26.779Z,22.9
2017-08-09T08:17:34.268Z,22.9
2017-08-09T08:18:42.302Z,22.8
2017-08-09T08:19:49.799Z,22.8
2017-08-09T08:20:57.278Z,22.7
2017-08-09T08:22:04.759Z,22.7
2017-08-09T08:23:11.914Z,22.6
2017-08-09T08:24:19.597Z,22.7
2017-08-09T08:25:26.426Z,22.4
2017-08-09T08:26:34.267Z,22.4
2017-08-09T08:27:41.752Z,22.8
2017-08-09T08:28:49.242Z,23
2017-08-09T08:29:56.734Z,22.9
2017-08-09T08:31:04.221Z,23.1
2017-08-09T08:32:13.037Z,23.3
2017-08-09T08:33:20.514Z,22.9
2017-08-09T08:34:28.000Z,22.8
2017-08-09T08:35:35.161Z,22.6
2017-08-09T08:36:42.390Z,22.8
2017-08-09T08:37:50.170Z,23.1
2017-08-09T08:38:57.662Z,23.2
2017-08-09T08:40:05.150Z,23
2017-08-09T08:41:12.310Z,23.3
2017-08-09T08:42:19.465Z,23.6
2017-08-09T08:43:27.299Z,23.5
2017-08-09T08:44:34.789Z,23.4
2017-08-09T08:45:42.278Z,23.2
2017-08-09T08:46:49.759Z,23.2
2017-08-09T08:47:57.237Z,23.2
2017-08-09T08:49:04.753Z,23.2
2017-08-09T08:50:11.590Z,23.2
2017-08-09T08:51:19.084Z,23.4
2017-08-09T08:52:26.572Z,23.3
2017-08-09T08:53:34.054Z,23.6
2017-08-09T08:54:41.894Z,24
2017-08-09T08:55:49.381Z,24
2017-08-09T08:56:56.881Z,24.1
2017-08-09T08:58:04.370Z,24
2017-08-09T08:59:11.854Z,23.8
2017-08-09T09:00:19.365Z,23.8
2017-08-09T09:01:26.848Z,23.6
2017-08-09T09:02:34.332Z,24
2017-08-09T09:03:41.826Z,24.4
2017-08-09T09:04:49.311Z,24.6
2017-08-09T09:05:56.489Z,24.1
2017-08-09T09:07:03.973Z,23.9
2017-08-09T09:08:11.777Z,24.1
2017-08-09T09:09:19.261Z,24
2017-08-09T09:10:26.763Z,24.3
2017-08-09T09:11:34.249Z,24.8
2017-08-09T09:12:41.410Z,25.2
2017-08-09T09:13:49.197Z,25.3
2017-08-09T09:14:56.348Z,25.4
2017-08-09T09:16:03.832Z,25.5
2017-08-09T09:17:11.325Z,25.3
2017-08-09T09:18:18.815Z,24.8
2017-08-09T09:19:26.270Z,24.1
2017-08-09T09:20:33.995Z,24.1
2017-08-09T09:21:41.477Z,24.2
2017-08-09T09:22:49.201Z,24.5
2017-08-09T09:23:56.680Z,24.5
2017-08-09T09:25:04.690Z,24.6
2017-08-09T09:26:12.206Z,24.9
2017-08-09T09:27:19.374Z,25.1
2017-08-09T09:28:26.861Z,25.4
2017-08-09T09:29:34.345Z,25.4
2017-08-09T09:30:41.861Z,25.4
2017-08-09T09:31:49.375Z,25.7
2017-08-09T09:32:56.861Z,25.8
2017-08-09T09:34:04.350Z,25.5
2017-08-09T09:35:12.144Z,25.5
2017-08-09T09:36:19.638Z,25.3
2017-08-09T09:37:27.144Z,25.4
2017-08-09T09:38:34.299Z,25.5
2017-08-09T09:39:41.454Z,25.5
2017-08-09T09:40:49.233Z,25.4
2017-08-09T09:41:56.978Z,25.6
2017-08-09T09:43:04.459Z,26
2017-08-09T09:44:11.854Z,26.4
2017-08-09T09:45:19.345Z,26.6
2017-08-09T09:46:27.150Z,26.4
2017-08-09T09:47:34.305Z,25.9
2017-08-09T09:48:41.812Z,26
2017-08-09T09:49:49.298Z,26
2017-08-09T09:50:56.791Z,26
2017-08-09T09:52:04.641Z,26.1
2017-08-09T09:53:12.131Z,26.2
2017-08-09T09:54:19.632Z,25.9
2017-08-09T09:55:27.113Z,25.6
2017-08-09T09:56:34.275Z,25.7
2017-08-09T09:57:41.768Z,26
2017-08-09T09:58:49.263Z,26.4
2017-08-09T09:59:56.754Z,26.3
2017-08-09T10:01:03.917Z,26.4
2017-08-09T10:02:11.401Z,26.5
2017-08-09T10:03:19.086Z,26.5
2017-08-09T10:04:26.574Z,26.4
2017-08-09T10:05:33.413Z,26.2
2017-08-09T10:06:40.566Z,25.9
2017-08-09T10:07:48.071Z,26
2017-08-09T10:08:55.860Z,26.3
2017-08-09T10:10:03.376Z,26.6
2017-08-09T10:11:10.889Z,26.8
2017-08-09T10:12:18.372Z,26.9
2017-08-09T10:13:25.528Z,26.9
2017-08-09T10:14:32.992Z,26.9
2017-08-09T10:15:40.180Z,26.3
2017-08-09T10:16:47.688Z,26.3
2017-08-09T10:17:55.176Z,26.2
2017-08-09T10:19:02.337Z,26.4
2017-08-09T10:20:10.128Z,26.2
2017-08-09T10:21:17.612Z,26.1
2017-08-09T10:22:25.123Z,26.2
2017-08-09T10:23:32.612Z,26.7
2017-08-09T10:24:39.796Z,26.8
2017-08-09T10:25:47.582Z,27
2017-08-09T10:26:55.127Z,27
2017-08-09T10:28:02.284Z,26.9
2017-08-09T10:29:09.769Z,26.9
2017-08-09T10:30:17.690Z,26
2017-08-09T10:31:25.479Z,25.9
2017-08-09T10:32:33.217Z,25.7
2017-08-09T10:33:40.712Z,25.2
2017-08-09T10:34:48.221Z,25.1
2017-08-09T10:35:55.378Z,25.4
2017-08-09T10:37:02.867Z,25.8
2017-08-09T10:38:10.354Z,26.1
2017-08-09T10:39:17.842Z,26.5
2017-08-09T10:40:25.330Z,26.2
2017-08-09T10:41:33.054Z,25.9
2017-08-09T10:42:40.850Z,26
2017-08-09T10:43:48.565Z,26.1
2017-08-09T10:44:56.054Z,26.5
2017-08-09T10:46:03.540Z,27
2017-08-09T10:47:11.031Z,27.1
2017-08-09T10:48:18.828Z,27.2
2017-08-09T10:49:25.982Z,27.4
2017-08-09T10:50:33.474Z,27.6
2017-08-09T10:51:40.964Z,27.9
2017-08-09T10:52:48.121Z,28.2
2017-08-09T10:53:55.915Z,28.4
2017-08-09T10:55:03.399Z,28.5
2017-08-09T10:56:10.894Z,28.8
2017-08-09T10:57:18.388Z,28.6
2017-08-09T10:58:26.603Z,27.9
2017-08-09T10:59:34.110Z,27.9
2017-08-09T11:00:41.593Z,28.1
2017-08-09T11:01:49.081Z,28
2017-08-09T11:02:56.590Z,27.7
2017-08-09T11:04:04.370Z,27.7
2017-08-09T11:05:11.861Z,28.2
2017-08-09T11:06:19.351Z,28.5
2017-08-09T11:07:26.834Z,28.7
2017-08-09T11:08:34.324Z,28.4
2017-08-09T11:09:42.163Z,28.4
2017-08-09T11:10:49.657Z,28.5
2017-08-09T11:11:57.151Z,28.3
2017-08-09T11:13:04.324Z,28.2
2017-08-09T11:14:11.817Z,28.4
2017-08-09T11:15:19.352Z,28.2
2017-08-09T11:16:26.847Z,28.3
2017-08-09T11:17:34.343Z,28.2
2017-08-09T11:18:41.833Z,28.5
2017-08-09T11:19:49.331Z,28.6
2017-08-09T11:20:57.173Z,28.9
2017-08-09T11:22:04.661Z,29.2
2017-08-09T11:23:11.821Z,29.5
2017-08-09T11:24:19.305Z,29.6
2017-08-09T11:25:26.794Z,29.8
2017-08-09T11:26:34.637Z,29.8
2017-08-09T11:27:42.130Z,30.1
2017-08-09T11:28:49.620Z,29.9
2017-08-09T11:29:57.101Z,29.7
2017-08-09T11:31:04.264Z,29.8
2017-08-09T11:32:11.773Z,29.2
2017-08-09T11:33:19.125Z,28.8
2017-08-09T11:34:26.609Z,29.1
2017-08-09T11:35:33.769Z,29.3
2017-08-09T11:36:40.941Z,28.9
2017-08-09T11:37:48.780Z,28.6
2017-08-09T11:38:55.938Z,28.5
2017-08-09T11:40:03.426Z,28.5
2017-08-09T11:41:10.917Z,28.4
2017-08-09T11:42:18.409Z,28.2
2017-08-09T11:43:25.915Z,28.3
2017-08-09T11:44:33.409Z,28.5
2017-08-09T11:45:40.897Z,28.7
2017-08-09T11:46:48.388Z,29
2017-08-09T11:47:55.887Z,29.1
2017-08-09T11:49:03.729Z,29.4
2017-08-09T11:50:11.216Z,29
2017-08-09T11:51:18.707Z,28.3
2017-08-09T11:52:26.194Z,27.5
2017-08-09T11:53:33.703Z,26.9
2017-08-09T11:54:41.542Z,26.7
2017-08-09T11:55:48.698Z,26.7
2017-08-09T11:56:56.193Z,27.1
2017-08-09T11:58:03.356Z,27.5
2017-08-09T11:59:10.868Z,27.8
2017-08-09T12:00:18.660Z,28.2
2017-08-09T12:01:26.157Z,28.8
2017-08-09T12:02:33.646Z,29
2017-08-09T12:03:40.818Z,29.4
2017-08-09T12:04:47.976Z,29.2
2017-08-09T12:05:55.827Z,29.4
2017-08-09T12:07:03.338Z,29.5
2017-08-09T12:08:10.829Z,29.5
2017-08-09T12:09:18.319Z,29.5
2017-08-09T12:10:25.810Z,29.3
2017-08-09T12:11:33.623Z,29.1
2017-08-09T12:12:40.779Z,29.3
2017-08-09T12:13:47.610Z,29.6
2017-08-09T12:14:55.098Z,30
2017-08-09T12:16:02.590Z,29.9
2017-08-09T12:17:10.100Z,29.4
2017-08-09T12:18:17.592Z,29.4
2017-08-09T12:19:25.080Z,29.8
2017-08-09T12:20:32.571Z,29.5
2017-08-09T12:21:40.077Z,29.3
2017-08-09T12:22:47.925Z,29.9
2017-08-09T12:23:55.428Z,30.1
2017-08-09T12:25:02.947Z,30.1
2017-08-09T12:26:10.443Z,29.9
2017-08-09T12:27:17.942Z,29.8
2017-08-09T12:28:25.783Z,29.5
2017-08-09T12:29:33.279Z,29.1
2017-08-09T12:30:40.768Z,29.2
2017-08-09T12:31:48.500Z,29.4
2017-08-09T12:32:55.988Z,29.4
2017-08-09T12:34:04.043Z,29.3
2017-08-09T12:35:11.540Z,29
2017-08-09T12:36:19.031Z,29
2017-08-09T12:37:26.193Z,29.2
2017-08-09T12:38:33.354Z,29.3
2017-08-09T12:39:41.141Z,29.5
2017-08-09T12:40:49.114Z,29.6
2017-08-09T12:41:56.610Z,30.1
2017-08-09T12:43:04.095Z,29.8
2017-08-09T12:44:11.589Z,29.5
2017-08-09T12:45:19.426Z,29.6
2017-08-09T12:46:26.921Z,29.7
2017-08-09T12:47:34.419Z,29.7
2017-08-09T12:48:41.913Z,29.8
2017-08-09T12:49:49.409Z,29.4
2017-08-09T12:50:57.092Z,29.1
2017-08-09T12:52:05.016Z,29.3
2017-08-09T12:53:12.505Z,29.5
2017-08-09T12:54:20.002Z,29.3
2017-08-09T12:55:27.492Z,28.7
2017-08-09T12:56:35.329Z,28.5
2017-08-09T12:57:42.817Z,28.6
2017-08-09T12:58:50.309Z,28.8
2017-08-09T12:59:57.792Z,28.9
2017-08-09T13:01:05.298Z,29.2
2017-08-09T13:02:13.186Z,29.3
2017-08-09T13:03:20.680Z,29.3
2017-08-09T13:04:28.170Z,29.4
2017-08-09T13:05:35.658Z,29.4
2017-08-09T13:06:43.150Z,29.4
2017-08-09T13:07:50.641Z,29.2
2017-08-09T13:08:57.805Z,28.6
2017-08-09T13:10:04.968Z,28.1
2017-08-09T13:11:12.448Z,28.1
2017-08-09T13:12:20.291Z,28.2
2017-08-09T13:13:27.776Z,28.6
2017-08-09T13:14:35.269Z,29
2017-08-09T13:15:42.436Z,29.3
2017-08-09T13:16:49.588Z,29.2
2017-08-09T13:17:57.427Z,29.2
2017-08-09T13:19:04.585Z,29.3
2017-08-09T13:20:12.077Z,29.3
2017-08-09T13:21:19.571Z,29.4
2017-08-09T13:22:27.062Z,29.5
2017-08-09T13:23:34.850Z,29.2
2017-08-09T13:24:42.345Z,28.4
2017-08-09T13:25:49.831Z,28
2017-08-09T13:26:57.326Z,28
2017-08-09T13:28:04.814Z,28.1
2017-08-09T13:29:12.827Z,27.9
2017-08-09T13:30:20.312Z,27
2017-08-09T13:31:27.861Z,26.8
2017-08-09T13:32:35.358Z,27
2017-08-09T13:33:42.882Z,27.3
2017-08-09T13:34:50.398Z,27.5
2017-08-09T13:35:57.561Z,27.7
2017-08-09T13:37:05.054Z,27.5
2017-08-09T13:38:12.537Z,27.5
2017-08-09T13:39:20.024Z,27.4
2017-08-09T13:40:27.814Z,27.7
2017-08-09T13:41:35.307Z,27.8
2017-08-09T13:42:42.463Z,27.9
2017-08-09T13:43:49.954Z,27.8
2017-08-09T13:44:57.147Z,27.9
2017-08-09T13:46:04.939Z,28.1
2017-08-09T13:47:12.434Z,28.4
2017-08-09T13:48:19.925Z,28.8
2017-08-09T13:49:27.569Z,29.4
2017-08-09T13:50:35.066Z,29.8
2017-08-09T13:51:42.555Z,30.1
2017-08-09T13:52:50.281Z,30.7
2017-08-09T13:53:57.772Z,31
2017-08-09T13:55:05.263Z,31.1
2017-08-09T13:56:12.779Z,31.1
2017-08-09T13:57:20.573Z,30.7
2017-08-09T13:58:28.066Z,30.3
2017-08-09T13:59:35.557Z,30.3
2017-08-09T14:00:43.049Z,30.4
2017-08-09T14:01:50.539Z,30.2
2017-08-09T14:02:58.332Z,30.2
2017-08-09T14:04:05.491Z,30.5
2017-08-09T14:05:12.984Z,30.9
2017-08-09T14:06:20.168Z,31
2017-08-09T14:07:27.670Z,30.9
2017-08-09T14:08:35.128Z,30
2017-08-09T14:09:42.617Z,29.8
2017-08-09T14:10:50.102Z,30
2017-08-09T14:11:57.595Z,30
2017-08-09T14:13:05.084Z,29.9
2017-08-09T14:14:13.110Z,29.9
2017-08-09T14:15:20.234Z,29.9
2017-08-09T14:16:27.723Z,29.8
2017-08-09T14:17:35.219Z,29.8
2017-08-09T14:18:42.715Z,30.1
2017-08-09T14:19:50.501Z,30.4
2017-08-09T14:20:57.992Z,30.6
2017-08-09T14:22:05.486Z,30.7
2017-08-09T14:23:12.981Z,31
2017-08-09T14:24:20.470Z,31.1
2017-08-09T14:25:28.270Z,31.2
2017-08-09T14:26:35.758Z,31
2017-08-09T14:27:43.255Z,30.4
2017-08-09T14:28:50.750Z,30.2
2017-08-09T14:29:58.243Z,30.2
2017-08-09T14:31:05.730Z,30.2
2017-08-09T14:32:13.216Z,30.2
2017-08-09T14:33:20.703Z,30
2017-08-09T14:34:28.196Z,30
2017-08-09T14:35:35.683Z,29.6
2017-08-09T14:36:43.486Z,29.7
2017-08-09T14:37:50.978Z,29.9
2017-08-09T14:38:58.477Z,29.9
2017-08-09T14:40:05.971Z,30
2017-08-09T14:41:13.137Z,30.1
2017-08-09T14:42:20.992Z,30
2017-08-09T14:43:28.485Z,29.6
2017-08-09T14:44:35.351Z,29.8
2017-08-09T14:45:42.848Z,30.1
2017-08-09T14:46:50.333Z,30.5
2017-08-09T14:47:57.803Z,31
2017-08-09T14:49:05.289Z,31.3
2017-08-09T14:50:13.021Z,31
2017-08-09T14:51:20.514Z,30.9
2017-08-09T14:52:28.243Z,30.6
2017-08-09T14:53:36.031Z,30.2
2017-08-09T14:54:43.536Z,30
2017-08-09T14:55:51.021Z,29.9
2017-08-09T14:56:58.546Z,29.8
2017-08-09T14:58:06.036Z,30.2
2017-08-09T14:59:13.891Z,30.3
2017-08-09T15:00:21.385Z,30.2
2017-08-09T15:01:28.548Z,29.8
2017-08-09T15:02:36.039Z,29.6
2017-08-09T15:03:43.559Z,29.7
2017-08-09T15:04:51.050Z,29.9
2017-08-09T15:05:58.844Z,30.4
2017-08-09T15:07:06.001Z,30.8